createdAt,value
2017-05-20T21:45:52.233Z,11.02
2017-05-20T21:48:20.458Z,10.48
2017-05-20T21:50:47.936Z,10.46
2017-05-20T21:53:16.180Z,10.60
2017-05-20T21:55:44.418Z,8.76
2017-05-20T21:58:12.651Z,7.42
2017-05-20T22:00:40.883Z,5.78
2017-05-20T22:03:09.148Z,6.18
2017-05-20T22:05:37.579Z,5.20
2017-05-20T22:08:05.866Z,5.34
2017-05-20T22:10:34.106Z,4.74
2017-05-20T22:13:02.375Z,4.34
2017-05-20T22:15:30.636Z,5.16
2017-05-20T22:17:59.021Z,6.50
2017-05-20T22:20:29.258Z,6.32
2017-05-20T22:22:57.482Z,6.06
2017-05-20T22:25:25.735Z,6.20
2017-05-20T22:27:53.963Z,5.72
2017-05-20T22:30:22.243Z,5.42
2017-05-20T22:32:50.471Z,5.22
2017-05-20T22:35:18.713Z,5.00
2017-05-20T22:37:46.948Z,5.48
2017-05-20T22:40:15.211Z,4.98
2017-05-20T22:42:43.492Z,4.98
2017-05-20T22:45:11.724Z,5.32
2017-05-20T22:47:39.989Z,5.00
2017-05-20T22:50:08.229Z,4.40
2017-05-20T22:52:36.464Z,3.96
2017-05-20T22:55:04.708Z,4.60
2017-05-20T22:57:32.950Z,4.20
2017-05-20T23:00:01.201Z,4.30
2017-05-20T23:02:29.460Z,4.56
2017-05-20T23:04:57.747Z,4.60
2017-05-20T23:07:26.000Z,4.08
2017-05-20T23:09:54.223Z,5.40
2017-05-20T23:12:22.477Z,5.22
2017-05-20T23:14:50.707Z,5.04
2017-05-20T23:17:18.954Z,6.38
2017-05-20T23:19:47.180Z,4.54
2017-05-20T23:22:15.418Z,4.22
2017-05-20T23:24:43.667Z,4.48
2017-05-20T23:27:11.918Z,4.48
2017-05-20T23:29:40.166Z,4.50
2017-05-20T23:32:08.391Z,4.46
2017-05-20T23:34:36.631Z,3.92
2017-05-20T23:37:04.859Z,4.20
2017-05-20T23:39:33.099Z,4.50
2017-05-20T23:42:00.559Z,4.26
2017-05-20T23:44:28.799Z,4.10
2017-05-20T23:46:57.042Z,4.20
2017-05-20T23:49:25.283Z,4.52
2017-05-20T23:51:53.522Z,4.48
2017-05-20T23:54:21.762Z,4.46
2017-05-20T23:56:50.009Z,4.74
2017-05-20T23:59:18.235Z,5.00
